Time;durP1;ratioP1;P1;durP2;ratioP2;P2;SDS_P1;SDS_P2;PMS_P1;PMS_P2;Temp;Humidity;BMP_temperature;BMP_pressure;BME280_temperature;BME280_humidity;BME280_pressure;Samples;Min_cycle;Max_cycle;Signal;HPM_P1;HPM_P2
2022/04/29 00:01:03;;;;;;;9.70;4.38;;;;;;;18.00;59.33;101094.63;5056405;28;20080;-76
2022/04/29 00:03:31;;;;;;;9.30;4.50;;;;;;;18.04;59.23;101109.78;5053745;28;20049;-76
2022/04/29 00:05:58;;;;;;;5.35;3.25;;;;;;;17.81;59.93;101108.06;5052468;28;20098;-77
2022/04/29 00:08:25;;;;;;;8.35;3.58;;;;;;;17.75;59.95;101094.03;5049581;28;20420;-77
2022/04/29 00:10:52;;;;;;;5.07;3.03;;;;;;;17.80;60.33;101112.03;5052935;28;20118;-77
2022/04/29 00:13:19;;;;;;;11.75;4.55;;;;;;;17.15;60.28;101009.47;5054055;28;20079;-82
2022/04/29 00:15:46;;;;;;;14.10;4.80;;;;;;;17.80;60.36;101127.00;5050927;28;20049;-83
2022/04/29 00:18:16;;;;;;;12.07;5.40;;;;;;;17.24;60.46;101044.28;5054608;28;20473;-82
2022/04/29 00:20:49;;;;;;;7.80;3.83;;;;;;;17.58;60.65;101099.47;5052253;28;20049;-80
2022/04/29 00:23:16;;;;;;;4.68;2.67;;;;;;;17.51;61.11;101104.72;5049354;28;20045;-76
2022/04/29 00:25:43;;;;;;;8.13;4.57;;;;;;;16.96;60.86;101031.31;5061653;28;20098;-75
2022/04/29 00:28:10;;;;;;;8.25;4.15;;;;;;;16.92;61.45;101018.94;5050268;28;20057;-76
2022/04/29 00:30:37;;;;;;;8.60;4.35;;;;;;;17.47;61.69;101127.09;5051821;28;20095;-74
2022/04/29 00:33:04;;;;;;;6.93;3.95;;;;;;;17.20;61.39;101074.28;5051023;28;20049;-78
2022/04/29 00:35:31;;;;;;;11.40;4.35;;;;;;;17.57;61.08;101128.84;5048304;28;20049;-78
2022/04/29 00:37:58;;;;;;;5.88;2.55;;;;;;;17.08;60.98;101039.25;5052312;28;20430;-78
2022/04/29 00:40:29;;;;;;;8.63;4.53;;;;;;;17.71;60.73;101126.06;5048352;28;20141;-78
2022/04/29 00:42:56;;;;;;;7.18;3.88;;;;;;;17.54;60.95;101098.44;5043783;28;20087;-79
2022/04/29 00:45:24;;;;;;;5.65;3.63;;;;;;;17.74;60.44;101125.41;5054529;28;20468;-79
2022/04/29 00:47:53;;;;;;;8.27;3.72;;;;;;;17.72;60.07;101107.94;5054656;28;20053;-79
2022/04/29 00:50:23;;;;;;;9.45;3.67;;;;;;;17.83;60.39;101134.84;5049490;28;20081;-79
2022/04/29 00:52:52;;;;;;;7.57;4.90;;;;;;;17.29;60.03;101018.75;5041983;28;20561;-79
2022/04/29 00:55:21;;;;;;;9.30;5.53;;;;;;;17.57;59.55;101063.91;5051369;28;20080;-79
2022/04/29 00:58:12;;;;;;;12.95;6.15;;;;;;;17.98;59.55;101130.84;5058697;28;20503;-79
2022/04/29 01:00:39;;;;;;;10.98;6.00;;;;;;;17.97;59.25;101106.56;5049792;28;20072;-79
2022/04/29 01:03:11;;;;;;;11.00;6.45;;;;;;;18.07;58.31;101082.91;5051929;28;20059;-79
2022/04/29 01:05:39;;;;;;;19.35;8.77;;;;;;;18.43;57.87;101137.44;5039566;28;20051;-78
2022/04/29 01:08:07;;;;;;;30.30;13.30;;;;;;;18.47;57.90;101137.63;5049434;28;20131;-73
2022/04/29 01:10:34;;;;;;;33.55;14.25;;;;;;;18.18;57.89;101089.97;5055164;28;20397;-78
2022/04/29 01:13:03;;;;;;;30.17;14.25;;;;;;;18.41;57.84;101117.13;5049225;28;20044;-78
2022/04/29 01:15:31;;;;;;;17.20;9.82;;;;;;;18.06;57.88;101070.75;5050328;28;20096;-78
2022/04/29 01:18:06;;;;;;;16.50;7.80;;;;;;;17.92;58.43;101070.78;5048436;28;20099;-75
2022/04/29 01:20:34;;;;;;;14.80;6.80;;;;;;;17.88;58.66;101083.91;5050987;28;20145;-76
2022/04/29 01:23:09;;;;;;;15.55;6.53;;;;;;;18.09;58.61;101114.50;5050404;28;20102;-74
2022/04/29 01:25:37;;;;;;;11.27;5.68;;;;;;;18.14;58.29;101126.53;5048156;28;20092;-74
2022/04/29 01:28:05;;;;;;;9.25;4.90;;;;;;;17.76;58.72;101072.28;5048156;28;20110;-73
2022/04/29 01:30:31;;;;;;;5.70;4.10;;;;;;;17.65;58.70;101068.81;5048445;28;20468;-75
2022/04/29 01:33:00;;;;;;;9.48;5.50;;;;;;;17.92;58.84;101110.34;5051557;28;20084;-74
2022/04/29 01:35:27;;;;;;;11.60;5.72;;;;;;;17.90;58.81;101111.81;5048652;28;20045;-74
2022/04/29 01:37:53;;;;;;;8.90;4.43;;;;;;;17.82;58.60;101095.63;5051892;28;20049;-73
2022/04/29 01:40:20;;;;;;;10.18;4.88;;;;;;;17.88;58.62;101114.09;5048493;28;20549;-77
2022/04/29 01:42:47;;;;;;;11.05;5.70;;;;;;;17.54;58.90;101070.19;5043325;28;20077;-77
2022/04/29 01:45:14;;;;;;;10.65;4.70;;;;;;;17.20;58.88;101015.00;5048092;28;20107;-78
2022/04/29 01:47:41;;;;;;;11.63;6.10;;;;;;;17.77;59.08;101107.84;5048057;28;20114;-77
2022/04/29 01:50:08;;;;;;;7.72;4.45;;;;;;;17.13;59.08;101014.59;5049383;28;20430;-79
2022/04/29 01:52:35;;;;;;;11.30;4.85;;;;;;;17.66;58.63;101095.06;5048358;28;20099;-78
2022/04/29 01:55:02;;;;;;;10.52;5.85;;;;;;;17.72;58.56;101105.13;5040037;28;20091;-75
2022/04/29 01:57:29;;;;;;;10.82;4.95;;;;;;;17.67;58.88;101102.38;5048925;28;20118;-74
2022/04/29 01:59:56;;;;;;;8.40;4.40;;;;;;;17.35;58.55;101049.72;5050513;28;20432;-75
2022/04/29 02:02:23;;;;;;;7.68;4.55;;;;;;;17.63;58.03;101090.88;5049019;28;20098;-77
2022/04/29 02:04:50;;;;;;;7.70;5.20;;;;;;;17.83;58.07;101111.41;5044729;28;20504;-76
2022/04/29 02:07:18;;;;;;;22.75;5.43;;;;;;;17.75;57.71;101099.66;5050073;28;20045;-76
2022/04/29 02:09:45;;;;;;;7.85;4.30;;;;;;;17.81;57.44;101105.22;5050846;28;20037;-75
2022/04/29 02:12:11;;;;;;;6.03;2.97;;;;;;;17.77;57.82;101108.69;5054246;28;20482;-76
2022/04/29 02:14:41;;;;;;;8.48;5.28;;;;;;;17.43;57.83;101057.44;5048968;28;20080;-77
2022/04/29 02:17:09;;;;;;;;;;;;;;;17.57;57.80;101103.44;5050023;28;20052;-76
2022/04/29 02:19:37;;;;;;;4.10;3.22;;;;;;;17.51;57.92;101093.41;5052311;28;19960;-76
2022/04/29 02:22:08;;;;;;;6.72;3.88;;;;;;;17.61;57.68;101107.31;5049896;28;20056;-76
2022/04/29 02:24:35;;;;;;;4.90;3.22;;;;;;;17.27;57.65;101066.22;5053662;28;20049;-75
2022/04/29 02:27:04;;;;;;;5.20;2.95;;;;;;;17.23;58.10;101059.53;5037581;28;20073;-75
2022/04/29 02:29:31;;;;;;;4.38;2.95;;;;;;;17.13;57.74;101042.81;5045302;28;20049;-73
2022/04/29 02:31:59;;;;;;;4.63;3.03;;;;;;;17.46;58.05;101107.63;5044962;28;20103;-74
2022/04/29 02:34:26;;;;;;;10.73;3.60;;;;;;;17.52;58.11;101112.03;5051540;28;20139;-74
2022/04/29 02:36:54;;;;;;;7.00;3.45;;;;;;;17.41;58.15;101104.91;5058732;28;20504;-74
2022/04/29 02:39:21;;;;;;;7.88;3.67;;;;;;;17.39;58.22;101113.69;5051382;28;20052;-75
2022/04/29 02:41:48;;;;;;;7.13;3.33;;;;;;;17.18;58.69;101107.63;5054036;28;20076;-76
2022/04/29 02:44:15;;;;;;;4.18;2.85;;;;;;;17.13;59.46;101116.19;5051312;28;20084;-74
2022/04/29 02:49:28;;;;;;;6.75;4.00;;;;;;;17.01;59.50;101107.38;5044469;28;20100;-73
2022/04/29 02:51:55;;;;;;;5.30;3.65;;;;;;;16.95;59.71;101117.06;5052879;28;20111;-74
2022/04/29 02:54:22;;;;;;;5.45;3.20;;;;;;;16.75;59.79;101088.09;5052326;28;20499;-75
2022/04/29 02:56:52;;;;;;;7.10;3.97;;;;;;;16.91;59.73;101101.91;5052699;28;20103;-73
2022/04/29 02:59:20;;;;;;;5.50;3.08;;;;;;;16.90;59.13;101097.44;5053287;28;20045;-73
2022/04/29 03:01:47;;;;;;;8.50;3.90;;;;;;;16.77;58.58;101056.75;5053845;28;20053;-73
2022/04/29 03:04:14;;;;;;;7.47;3.95;;;;;;;17.14;58.25;101092.47;5043760;28;20053;-73
2022/04/29 03:06:42;;;;;;;6.70;2.97;;;;;;;17.23;58.17;101110.34;5048511;28;20103;-73
2022/04/29 03:09:09;;;;;;;5.15;2.35;;;;;;;16.88;57.70;101051.75;5053395;28;20052;-74
2022/04/29 03:11:36;;;;;;;2.72;1.00;;;;;;;17.18;57.41;101107.63;5054087;28;20087;-74
2022/04/29 03:14:04;;;;;;;4.03;2.47;;;;;;;17.19;56.95;101092.34;5047039;28;20467;-76
2022/04/29 03:16:31;;;;;;;5.78;2.67;;;;;;;17.20;56.11;101079.94;5045275;28;20049;-74
2022/04/29 03:18:58;;;;;;;2.67;1.80;;;;;;;17.33;56.12;101080.22;5044638;28;20102;-75
2022/04/29 03:21:26;;;;;;;4.63;2.58;;;;;;;17.49;55.36;101107.00;5051060;28;20096;-73
2022/04/29 03:23:53;;;;;;;3.97;2.28;;;;;;;17.56;55.35;101101.78;5053154;28;20126;-74
2022/04/29 03:26:19;;;;;;;7.97;2.55;;;;;;;17.16;54.54;101028.09;5060382;28;20088;-75
2022/04/29 03:28:46;;;;;;;5.32;2.50;;;;;;;17.68;54.73;101092.78;5050623;28;20534;-73
2022/04/29 03:31:13;;;;;;;3.22;1.83;;;;;;;17.69;54.31;101100.94;5051192;28;20048;-73
2022/04/29 03:33:40;;;;;;;5.00;2.00;;;;;;;17.73;54.38;101085.00;5053073;28;20048;-73
2022/04/29 03:36:08;;;;;;;3.92;2.45;;;;;;;17.74;54.08;101069.75;5048360;28;20561;-73
2022/04/29 03:38:38;;;;;;;3.80;1.98;;;;;;;17.55;53.56;101037.97;5046903;28;20095;-73
2022/04/29 03:41:05;;;;;;;;;;;;;;;17.81;54.00;101099.56;5056763;28;20504;-74
2022/04/29 03:43:32;;;;;;;6.00;2.70;;;;;;;17.41;53.55;101021.06;5056319;28;20415;-74
2022/04/29 03:46:00;;;;;;;7.28;2.50;;;;;;;17.86;53.86;101100.31;5063857;28;20053;-73
2022/04/29 03:48:27;;;;;;;6.47;2.83;;;;;;;17.65;53.62;101068.81;5052332;28;20511;-75
2022/04/29 03:50:54;;;;;;;3.92;2.25;;;;;;;17.62;53.82;101077.91;5052925;28;20496;-75
2022/04/29 03:53:24;;;;;;;3.80;1.92;;;;;;;17.32;53.53;101031.41;5050266;28;20080;-75
2022/04/29 03:55:51;;;;;;;;;;;;;;;17.65;53.75;101099.88;5054402;28;20083;-74
2022/04/29 03:58:18;;;;;;;4.07;2.42;;;;;;;17.12;53.69;101012.06;5046980;28;20346;-74
2022/04/29 04:00:46;;;;;;;4.47;2.22;;;;;;;17.41;53.59;101060.59;5047321;28;20085;-75
2022/04/29 04:03:13;;;;;;;3.13;1.35;;;;;;;17.02;53.61;100999.84;5035121;28;20104;-75
2022/04/29 04:06:49;;;;;;;3.60;1.92;;;;;;;17.59;53.46;101103.13;5047470;28;20047;-75
2022/04/29 04:08:27;;;;;;;2.35;1.60;;;;;;;17.37;53.81;101064.34;5044279;28;20053;-74
2022/04/29 04:10:54;;;;;;;4.32;1.85;;;;;;;17.55;53.70;101107.75;5051425;28;20053;-73
2022/04/29 04:13:21;;;;;;;3.00;1.38;;;;;;;17.57;53.60;101111.06;5052469;28;20504;-74
2022/04/29 04:15:49;;;;;;;1.50;1.30;;;;;;;17.33;53.56;101075.41;5052988;28;20099;-75
2022/04/29 04:18:16;;;;;;;2.42;1.40;;;;;;;17.57;53.45;101108.25;5052806;28;20492;-75
2022/04/29 04:20:43;;;;;;;4.22;1.92;;;;;;;16.97;53.42;101005.59;5047317;28;20159;-78
2022/04/29 04:23:10;;;;;;;3.90;1.90;;;;;;;17.26;53.37;101064.56;5048342;28;20045;-77
2022/04/29 04:25:37;;;;;;;2.97;1.88;;;;;;;17.43;53.53;101103.44;5051132;28;20048;-77
2022/04/29 04:28:04;;;;;;;4.07;1.63;;;;;;;17.37;53.58;101092.59;5052572;28;20073;-77
2022/04/29 04:30:31;;;;;;;2.67;1.45;;;;;;;17.45;53.30;101101.16;5045943;28;20049;-77
2022/04/29 04:32:58;;;;;;;2.28;1.10;;;;;;;17.38;53.34;101085.78;5049042;28;20052;-75
2022/04/29 04:35:25;;;;;;;3.08;2.03;;;;;;;17.48;53.15;101091.22;5049886;28;20052;-76
2022/04/29 04:37:52;;;;;;;3.65;1.25;;;;;;;16.96;53.11;101001.09;5051608;28;20076;-76
2022/04/29 04:40:19;;;;;;;1.52;1.10;;;;;;;17.51;53.23;101096.25;5049596;28;20164;-75
2022/04/29 04:42:46;;;;;;;1.23;1.13;;;;;;;17.46;53.25;101079.41;5045330;28;20072;-76
2022/04/29 04:45:14;;;;;;;2.67;1.55;;;;;;;17.53;52.90;101091.09;5050239;28;20087;-81
2022/04/29 04:47:41;;;;;;;3.38;1.48;;;;;;;17.38;53.04;101077.31;5068326;28;20059;-81
2022/04/29 04:50:08;;;;;;;2.58;1.70;;;;;;;17.46;53.09;101102.81;5049278;28;20530;-77
2022/04/29 04:52:38;;;;;;;3.97;0.88;;;;;;;16.73;53.41;100997.28;5052175;28;20057;-74
2022/04/29 04:55:06;;;;;;;2.28;1.40;;;;;;;17.14;53.24;101071.88;5050742;28;20458;-74
2022/04/29 04:57:33;;;;;;;5.72;2.60;;;;;;;16.83;53.65;101037.78;5054178;28;20137;-74
2022/04/29 05:00:00;;;;;;;1.38;1.10;;;;;;;17.05;53.80;101089.50;5049256;28;20091;-72
2022/04/29 05:02:27;;;;;;;1.80;1.33;;;;;;;16.77;54.28;101057.59;5050994;28;20084;-74
2022/04/29 05:04:57;;;;;;;4.22;1.30;;;;;;;16.93;54.50;101074.25;5048588;28;20140;-78
2022/04/29 05:07:24;;;;;;;3.33;1.38;;;;;;;16.92;54.20;101086.66;5049614;28;20129;-78
2022/04/29 05:09:53;;;;;;;2.28;1.23;;;;;;;16.62;54.65;101043.75;5046266;28;20041;-75
2022/04/29 05:12:20;;;;;;;1.27;0.95;;;;;;;16.95;54.42;101094.50;5048636;28;20073;-74
2022/04/29 05:14:47;;;;;;;1.75;1.35;;;;;;;16.90;54.32;101092.63;5041694;28;20041;-75
2022/04/29 05:17:13;;;;;;;2.53;1.55;;;;;;;16.92;54.17;101081.00;5052462;28;20049;-76
2022/04/29 05:19:40;;;;;;;4.28;1.20;;;;;;;17.05;53.68;101099.97;5051569;28;20103;-76
2022/04/29 05:22:08;;;;;;;2.17;1.35;;;;;;;17.11;53.79;101109.19;5054377;28;20040;-79
2022/04/29 05:24:35;;;;;;;2.28;1.13;;;;;;;16.81;53.68;101058.63;5063333;28;20057;-77
2022/04/29 05:27:02;;;;;;;1.20;1.08;;;;;;;17.17;53.59;101105.94;5062344;28;20084;-77
2022/04/29 05:29:28;;;;;;;1.33;1.23;;;;;;;16.63;53.19;101003.13;5054617;28;20044;-74
2022/04/29 05:31:56;;;;;;;1.27;1.00;;;;;;;16.92;53.40;101041.53;5049795;28;20076;-74
2022/04/29 05:34:23;;;;;;;4.03;0.90;;;;;;;17.05;53.14;101080.22;5040115;28;20049;-74
2022/04/29 05:36:52;;;;;;;0.43;0.40;;;;;;;17.15;52.80;101079.19;5042220;28;20084;-74
2022/04/29 05:42:14;;;;;;;1.55;0.68;;;;;;;17.13;52.78;101071.03;5051123;28;20080;-77
2022/04/29 05:44:42;;;;;;;2.13;1.17;;;;;;;17.44;52.17;101115.59;5052531;28;20045;-73
2022/04/29 05:47:09;;;;;;;1.75;1.17;;;;;;;17.46;52.44;101121.75;5051397;28;20118;-84
2022/04/29 05:49:36;;;;;;;2.03;1.10;;;;;;;17.56;52.16;101126.34;5049995;28;20045;-73
2022/04/29 05:52:05;;;;;;;1.83;1.23;;;;;;;17.61;52.21;101129.91;5047082;28;20432;-73
2022/04/29 05:54:32;;;;;;;2.55;1.20;;;;;;;17.52;52.19;101114.84;5052749;28;20057;-73
2022/04/29 05:57:00;;;;;;;1.85;1.50;;;;;;;17.62;52.04;101128.75;5051824;28;20053;-73
2022/04/29 05:59:28;;;;;;;9.48;1.40;;;;;;;17.53;52.26;101125.81;5046161;28;20139;-73
2022/04/29 06:01:55;;;;;;;2.17;1.15;;;;;;;17.42;52.63;101129.19;5048066;28;20138;-74
2022/04/29 06:04:22;;;;;;;2.53;1.67;;;;;;;17.23;52.76;101110.34;5049709;28;20053;-74
2022/04/29 06:06:49;;;;;;;3.20;1.27;;;;;;;17.27;52.98;101128.34;5051179;28;20045;-74
2022/04/29 06:09:16;;;;;;;6.68;1.17;;;;;;;17.25;53.03;101124.13;5050978;28;20049;-73
2022/04/29 06:11:45;;;;;;;1.88;0.95;;;;;;;16.91;53.13;101082.16;5058910;28;20577;-73
2022/04/29 06:14:12;;;;;;;2.53;1.50;;;;;;;17.44;53.00;101141.00;5061628;28;20099;-73
2022/04/29 06:16:39;;;;;;;4.43;1.45;;;;;;;17.28;53.18;101118.72;5043762;28;20073;-73
2022/04/29 06:19:06;;;;;;;2.67;1.50;;;;;;;17.47;52.72;101123.41;5049756;28;20056;-73
2022/04/29 06:21:33;;;;;;;5.53;1.30;;;;;;;17.63;52.62;101141.72;5051194;28;20041;-77
2022/04/29 06:23:59;;;;;;;2.38;0.73;;;;;;;17.27;53.05;101102.94;5055591;28;20049;-74
2022/04/29 06:26:26;;;;;;;3.08;1.38;;;;;;;17.58;52.70;101127.72;5052883;28;20135;-74
2022/04/29 06:28:53;;;;;;;2.53;1.73;;;;;;;17.72;52.44;101142.66;5055802;28;20041;-74
2022/04/29 06:31:20;;;;;;;5.38;1.48;;;;;;;17.75;52.63;101130.75;5052712;28;20500;-75
2022/04/29 06:33:47;;;;;;;4.05;1.40;;;;;;;17.90;52.43;101138.06;5054076;28;20072;-73
2022/04/29 06:36:14;;;;;;;1.10;0.98;;;;;;;18.02;52.22;101140.38;5051299;28;20087;-76
2022/04/29 06:38:41;;;;;;;2.15;1.20;;;;;;;18.13;51.99;101144.66;5044746;28;20078;-74
2022/04/29 06:41:08;;;;;;;2.13;0.95;;;;;;;18.05;51.67;101113.44;5047426;28;20058;-74
2022/04/29 06:43:35;;;;;;;3.05;1.40;;;;;;;17.99;51.23;101095.78;5052478;28;20464;-75
2022/04/29 06:46:02;;;;;;;3.60;1.52;;;;;;;18.41;50.86;101134.09;5046368;28;20516;-75
2022/04/29 06:48:29;;;;;;;1.55;1.15;;;;;;;18.62;50.69;101154.22;5047555;28;20590;-73
2022/04/29 06:50:55;;;;;;;3.42;1.00;;;;;;;18.67;50.81;101156.13;5045317;28;20076;-73
2022/04/29 06:53:22;;;;;;;2.97;2.05;;;;;;;18.69;50.12;101137.63;5047926;28;20044;-75
2022/04/29 06:55:49;;;;;;;2.28;1.08;;;;;;;18.91;49.60;101136.84;5048850;28;20076;-74
2022/04/29 06:58:16;;;;;;;1.92;1.17;;;;;;;19.03;49.60;101143.91;5054272;28;20087;-73
2022/04/29 07:00:43;;;;;;;4.25;1.05;;;;;;;19.10;49.29;101149.94;5055554;28;20068;-73
2022/04/29 07:03:10;;;;;;;1.13;0.40;;;;;;;19.22;49.06;101141.69;5058587;28;20051;-75
2022/04/29 07:05:39;;;;;;;4.40;2.00;;;;;;;19.41;48.53;101141.44;5059272;28;20053;-74
2022/04/29 07:08:06;;;;;;;0.88;0.80;;;;;;;19.60;48.48;101146.88;5040897;28;20126;-75
2022/04/29 07:10:33;;;;;;;5.43;1.02;;;;;;;19.73;48.47;101145.13;5054252;28;20104;-76
2022/04/29 07:13:03;;;;;;;0.82;0.80;;;;;;;19.86;47.99;101166.81;5053185;28;20431;-77
2022/04/29 07:15:30;;;;;;;0.57;0.57;;;;;;;19.52;47.90;101117.34;5072829;28;20048;-75
2022/04/29 07:17:57;;;;;;;1.88;1.33;;;;;;;19.55;47.46;101119.50;5058982;28;20407;-74
2022/04/29 07:20:24;;;;;;;2.70;1.17;;;;;;;19.93;47.54;101161.53;5053520;28;20492;-73
2022/04/29 07:22:51;;;;;;;3.88;1.83;;;;;;;19.98;47.17;101152.84;5051646;28;20126;-76
2022/04/29 07:25:19;;;;;;;2.15;1.13;;;;;;;19.99;46.86;101146.00;5050717;28;20389;-75
2022/04/29 07:27:46;;;;;;;4.00;1.42;;;;;;;20.04;46.76;101128.84;5044576;28;20120;-75
2022/04/29 07:30:15;;;;;;;3.67;1.98;;;;;;;20.44;46.38;101168.44;5063008;28;20055;-77
2022/04/29 07:32:42;;;;;;;5.63;2.03;;;;;;;20.65;46.09;101164.97;5062501;28;20094;-77
2022/04/29 07:43:25;;;;;;;7.18;1.58;;;;;;;21.66;44.43;101179.66;5044748;28;20077;-76
2022/04/29 07:45:52;;;;;;;3.70;1.70;;;;;;;21.66;44.46;101171.16;5047431;28;20068;-76
2022/04/29 07:48:22;;;;;;;6.68;1.80;;;;;;;21.56;44.34;101131.72;5048635;28;20077;-76
2022/04/29 07:50:50;;;;;;;5.28;2.78;;;;;;;21.91;44.11;101172.19;5052329;28;20493;-76
2022/04/29 07:53:17;;;;;;;6.93;1.85;;;;;;;21.99;44.00;101152.25;5042791;28;20140;-76
2022/04/29 07:55:45;;;;;;;1.60;1.20;;;;;;;22.32;43.92;101160.09;5048403;28;20092;-75
2022/04/29 07:58:12;;;;;;;6.38;1.55;;;;;;;21.77;43.14;101084.28;5045548;28;20471;-76
2022/04/29 08:00:39;;;;;;;4.75;1.38;;;;;;;22.27;42.63;101185.91;5048759;28;20095;-75
2022/04/29 08:03:27;;;;;;;5.97;1.40;;;;;;;21.70;42.79;101076.31;5043044;28;20049;-76
2022/04/29 08:05:56;;;;;;;5.18;1.27;;;;;;;21.74;42.73;101094.38;5042138;28;20083;-76
2022/04/29 08:08:23;;;;;;;7.00;2.28;;;;;;;22.18;42.88;101174.56;5043787;28;20045;-75
2022/04/29 08:10:50;;;;;;;2.10;1.40;;;;;;;22.01;42.61;101124.28;5046588;28;20082;-76
2022/04/29 08:13:17;;;;;;;3.58;1.88;;;;;;;22.51;42.12;101173.03;5038926;28;20049;-75
2022/04/29 08:15:46;;;;;;;5.25;1.45;;;;;;;22.60;42.28;101165.25;5045261;28;20427;-75
2022/04/29 08:18:13;;;;;;;4.65;1.38;;;;;;;22.84;42.01;101168.22;5050218;28;20055;-76
2022/04/29 08:20:40;;;;;;;8.25;3.38;;;;;;;22.80;41.57;101141.59;5046915;28;20084;-77
2022/04/29 08:23:08;;;;;;;7.60;2.58;;;;;;;23.38;41.71;101179.59;5043862;28;20045;-76
2022/04/29 08:25:36;;;;;;;1.45;0.90;;;;;;;23.46;41.29;101157.88;5043668;28;20049;-75
2022/04/29 08:28:03;;;;;;;5.00;1.63;;;;;;;23.82;40.61;101165.66;5047513;28;20096;-77
2022/04/29 08:30:31;;;;;;;8.13;2.05;;;;;;;23.96;40.30;101136.78;5046957;28;20405;-76
2022/04/29 08:32:59;;;;;;;5.45;1.98;;;;;;;24.36;40.14;101151.09;5041716;28;20472;-77
2022/04/29 08:35:28;;;;;;;4.90;1.60;;;;;;;24.48;39.45;101138.88;5040930;28;20115;-77
2022/04/29 08:37:57;;;;;;;3.42;1.52;;;;;;;24.62;39.37;101149.91;5048904;28;20049;-77
2022/04/29 08:40:25;;;;;;;4.68;2.30;;;;;;;24.60;39.50;101149.41;5043653;28;20044;-73
2022/04/29 08:42:53;;;;;;;2.67;1.50;;;;;;;24.19;39.40;101104.91;5054709;28;20076;-71
2022/04/29 08:45:22;;;;;;;2.22;1.33;;;;;;;23.90;38.95;101098.28;5044864;28;20048;-73
2022/04/29 08:47:48;;;;;;;7.10;2.00;;;;;;;24.41;39.19;101132.09;5041333;28;20041;-73
2022/04/29 08:50:18;;;;;;;5.13;1.85;;;;;;;24.92;39.48;101149.53;5042952;28;20401;-74
2022/04/29 08:52:46;;;;;;;8.43;1.83;;;;;;;25.00;39.09;101131.41;5042861;28;20041;-73
2022/04/29 09:00:45;;;;;;;3.70;1.52;;;;;;;25.13;38.39;101126.47;5047879;28;20642;-73
2022/04/29 09:03:13;;;;;;;6.18;2.33;;;;;;;25.25;37.91;101127.25;5052062;28;20465;-73
2022/04/29 09:05:42;;;;;;;6.00;1.58;;;;;;;25.49;37.54;101154.84;5046121;28;20057;-73
2022/04/29 09:08:17;;;;;;;5.30;1.70;;;;;;;25.32;37.06;101140.91;5052657;28;20084;-73
2022/04/29 09:10:56;;;;;;;5.85;2.85;;;;;;;25.48;37.88;101126.63;5044848;28;20076;-73
2022/04/29 09:13:30;;;;;;;5.80;2.08;;;;;;;25.52;37.20;101121.81;5040798;28;20099;-73
2022/04/29 09:16:24;;;;;;;8.07;2.28;;;;;;;25.79;37.11;101144.97;5043159;28;20049;-72
2022/04/29 09:18:53;;;;;;;5.28;1.50;;;;;;;25.86;36.78;101096.56;5046023;28;20049;-73
2022/04/29 09:21:29;;;;;;;6.32;2.38;;;;;;;26.26;36.59;101150.66;5048425;28;20041;-72
2022/04/29 09:23:57;;;;;;;9.88;2.45;;;;;;;26.60;35.95;101154.75;5040885;28;20507;-73
2022/04/29 09:26:28;;;;;;;4.63;1.48;;;;;;;27.00;35.98;101162.13;5047641;28;20076;-74
2022/04/29 09:29:09;;;;;;;1.02;0.93;;;;;;;26.79;34.67;101142.44;5043258;28;20577;-73
2022/04/29 09:31:53;;;;;;;3.75;1.40;;;;;;;26.28;34.59;101165.41;5041488;28;20488;-73
2022/04/29 09:34:43;;;;;;;3.00;1.73;;;;;;;25.60;35.06;101089.34;5045977;28;20045;-74
2022/04/29 09:37:15;;;;;;;2.53;1.40;;;;;;;25.88;35.02;101162.81;5043540;28;20045;-78
2022/04/29 09:40:02;;;;;;;3.58;2.15;;;;;;;25.86;35.33;101160.31;5047510;28;20052;-74
2022/04/29 09:42:59;;;;;;;6.07;2.83;;;;;;;26.21;35.08;101171.81;5050758;28;20079;-76
2022/04/29 09:45:26;;;;;;;6.97;1.83;;;;;;;26.73;34.95;101172.59;5047591;28;20318;-75
2022/04/29 09:47:54;;;;;;;6.03;2.20;;;;;;;27.04;34.61;101171.63;5046851;28;20507;-75
2022/04/29 09:50:21;;;;;;;4.00;1.50;;;;;;;26.67;33.75;101108.25;5043000;28;20158;-73
2022/04/29 09:52:49;;;;;;;4.90;1.83;;;;;;;27.22;33.59;101174.06;5039936;28;20444;-71
2022/04/29 09:55:18;;;;;;;5.13;2.00;;;;;;;27.54;33.89;101164.03;5041406;28;20073;-71
2022/04/29 09:57:48;;;;;;;2.88;2.15;;;;;;;27.73;33.49;101176.66;5044840;28;20057;-75
2022/04/29 10:00:15;;;;;;;4.78;2.05;;;;;;;27.40;32.93;101163.75;5043955;28;20113;-76
2022/04/29 10:02:42;;;;;;;6.57;2.42;;;;;;;27.30;33.59;101175.84;5048767;28;20118;-74
2022/04/29 10:05:10;;;;;;;2.15;1.40;;;;;;;27.14;33.64;101122.28;5047620;28;20143;-75
2022/04/29 10:07:43;;;;;;;4.47;1.60;;;;;;;26.85;33.05;101103.69;5044610;28;20103;-72
2022/04/29 10:10:11;;;;;;;6.73;2.30;;;;;;;27.48;33.30;101173.31;5044816;28;20084;-70
2022/04/29 10:12:39;;;;;;;4.35;2.10;;;;;;;27.61;32.49;101134.63;5045565;28;20845;-73
2022/04/29 10:15:09;;;;;;;5.15;2.35;;;;;;;28.07;32.96;101157.59;5046155;28;20084;-74
2022/04/29 10:23:13;;;;;;;5.60;1.90;;;;;;;28.61;32.37;101170.72;5043179;28;20071;-73
2022/04/29 10:25:42;;;;;;;1.90;1.30;;;;;;;29.00;32.28;101174.16;5044452;28;20128;-72
2022/04/29 10:28:09;;;;;;;;;;;;;;;29.28;32.73;101169.94;5044802;28;20050;-73
2022/04/29 10:30:39;;;;;;;6.68;2.10;;;;;;;29.93;32.64;101175.13;5043211;28;19982;-73
2022/04/29 10:33:22;;;;;;;7.43;1.80;;;;;;;30.44;31.67;101168.53;5052426;28;20053;-72
2022/04/29 10:35:53;;;;;;;4.63;1.55;;;;;;;30.98;31.14;101170.91;5052008;28;20634;-72
2022/04/29 10:57:14;;;;;;;3.42;1.85;;;;;;;32.41;26.75;101136.41;5139237;27;20404;-74
2022/04/29 11:00:09;;;;;;;8.35;2.22;;;;;;;32.44;26.80;101155.84;5128499;27;20130;-74
2022/04/29 11:02:40;;;;;;;8.35;2.20;;;;;;;32.24;27.10;101124.47;5126711;28;20507;-74
2022/04/29 11:05:27;;;;;;;6.50;2.08;;;;;;;32.64;27.12;101136.78;5132944;27;20040;-74
2022/04/29 11:08:06;;;;;;;5.18;2.40;;;;;;;33.01;27.77;101147.81;5129670;28;20421;-73
2022/04/29 11:10:58;;;;;;;7.20;1.95;;;;;;;33.11;27.35;101137.41;5128085;27;20057;-76
2022/04/29 11:13:28;;;;;;;4.55;1.83;;;;;;;32.69;27.22;101132.66;5124926;27;20509;-72
2022/04/29 11:16:15;;;;;;;3.78;1.88;;;;;;;32.21;26.91;101131.09;5120267;27;20085;-77
2022/04/29 11:18:44;;;;;;;6.45;1.90;;;;;;;32.44;27.80;101119.06;5129267;27;20070;-77
2022/04/29 11:26:47;;;;;;;5.60;2.25;;;;;;;33.24;27.05;101158.03;5129900;28;20116;-72
2022/04/29 11:29:16;;;;;;;4.63;2.15;;;;;;;33.39;27.00;101145.09;5129785;27;20047;-76
2022/04/29 11:31:43;;;;;;;;;;;;;;;33.19;28.05;101132.41;5127722;27;20130;-76
2022/04/29 11:34:13;;;;;;;6.72;2.00;;;;;;;33.67;27.12;101123.00;5129071;28;20018;-76
2022/04/29 11:36:41;;;;;;;7.22;2.05;;;;;;;34.12;26.50;101120.13;5130030;27;20048;-76
2022/04/29 11:39:18;;;;;;;7.13;3.28;;;;;;;34.30;26.79;101117.06;5127936;27;20123;-76
2022/04/29 11:41:56;;;;;;;8.93;1.75;;;;;;;34.68;26.07;101126.59;5130524;27;20386;-76
2022/04/29 11:44:44;;;;;;;8.50;3.17;;;;;;;34.53;26.11;101120.16;5159962;27;20157;-76
2022/04/29 11:47:13;;;;;;;6.43;2.13;;;;;;;34.94;25.79;101144.47;5128169;27;20043;-77
2022/04/29 11:49:40;;;;;;;10.38;2.10;;;;;;;34.44;24.32;101143.81;5127441;27;20138;-77
2022/04/29 11:52:20;;;;;;;9.27;2.13;;;;;;;34.24;24.39;101116.69;5129912;27;20516;-78
2022/04/29 11:55:00;;;;;;;8.50;2.00;;;;;;;34.59;24.11;101132.91;5128213;28;20130;-78
2022/04/29 11:57:30;;;;;;;10.10;2.75;;;;;;;34.93;23.95;101114.63;5118270;27;20075;-77
2022/04/29 11:59:58;;;;;;;7.75;2.00;;;;;;;35.30;22.79;101124.53;5114453;27;20047;-77
2022/04/29 12:02:26;;;;;;;10.43;2.60;;;;;;;35.41;23.08;101139.69;5108355;27;20048;-76
2022/04/29 12:05:00;;;;;;;14.15;2.97;;;;;;;36.11;22.41;101123.66;5111173;27;20043;-76
2022/04/29 12:07:29;;;;;;;9.43;3.08;;;;;;;37.09;21.56;101132.91;5111721;28;20138;-76
2022/04/29 12:09:56;;;;;;;;;;;;;;;38.04;22.11;101134.78;5114415;27;20059;-77
2022/04/29 12:12:23;;;;;;;14.98;3.25;;;;;;;38.32;20.89;101133.16;5115067;27;19967;-77
2022/04/29 12:14:51;;;;;;;6.13;2.45;;;;;;;38.54;20.89;101109.25;5112591;28;20078;-77
2022/04/29 12:17:17;;;;;;;2.42;1.92;;;;;;;38.55;21.07;101090.47;5111730;27;20713;-78
2022/04/29 12:19:49;;;;;;;5.53;1.80;;;;;;;38.07;20.99;101090.13;5113626;27;20073;-77
2022/04/29 12:22:28;;;;;;;7.70;2.35;;;;;;;38.32;21.04;101117.75;5113170;27;20202;-78
2022/04/29 12:24:55;;;;;;;7.85;1.90;;;;;;;38.79;20.91;101091.00;5111271;27;20082;-77